Time;durP1;ratioP1;P1;durP2;ratioP2;P2;SDS_P1;SDS_P2;PMS_P1;PMS_P2;Temp;Humidity;BMP_temperature;BMP_pressure;BME280_temperature;BME280_humidity;BME280_pressure;Samples;Min_cycle;Max_cycle;Signal;HPM_P1;HPM_P2
2021/10/07 00:00:40;;;;;;;;;;;11.30;99.90;;;;;;5075284;28;19915;-79
2021/10/07 00:03:06;;;;;;;;;;;11.20;99.90;;;;;;5071286;28;19912;-79
2021/10/07 00:05:32;;;;;;;;;;;11.00;99.90;;;;;;5078735;28;19908;-80
2021/10/07 00:07:57;;;;;;;;;;;10.90;99.90;;;;;;5085947;28;20342;-80
2021/10/07 00:10:23;;;;;;;;;;;10.80;99.90;;;;;;5072429;28;19963;-80
2021/10/07 00:12:49;;;;;;;;;;;10.80;99.90;;;;;;5070556;28;19921;-80
2021/10/07 00:15:14;;;;;;;;;;;10.70;99.90;;;;;;5061223;28;19909;-80
2021/10/07 00:17:40;;;;;;;;;;;10.60;99.90;;;;;;5074874;28;19978;-80
2021/10/07 00:20:07;;;;;;;;;;;10.60;99.90;;;;;;5080226;28;19985;-80
2021/10/07 00:22:32;;;;;;;;;;;10.60;99.90;;;;;;5075271;28;19916;-80
2021/10/07 00:24:58;;;;;;;;;;;10.50;99.90;;;;;;5063460;28;20007;-80
2021/10/07 00:27:23;;;;;;;;;;;10.50;99.90;;;;;;5074108;28;19924;-79
2021/10/07 00:29:56;;;;;;;;;;;10.50;99.90;;;;;;5074657;28;19997;-80
2021/10/07 00:32:29;;;;;;;;;;;10.50;99.90;;;;;;5074626;28;20322;-79
2021/10/07 00:40:04;;;;;;;;;;;10.40;99.90;;;;;;5073523;28;19913;-79
2021/10/07 00:42:29;;;;;;;;;;;10.30;99.90;;;;;;5073343;28;19921;-80
2021/10/07 00:44:55;;;;;;;;;;;10.30;99.90;;;;;;5074240;28;20007;-80
2021/10/07 00:47:20;;;;;;;;;;;10.30;99.90;;;;;;5107794;28;19954;-80
2021/10/07 00:49:46;;;;;;;;;;;10.20;99.90;;;;;;5071333;28;19973;-80
2021/10/07 00:52:14;;;;;;;;;;;10.20;99.90;;;;;;5074003;28;20291;-80
2021/10/07 00:54:40;;;;;;;;;;;10.10;99.90;;;;;;5074151;28;19912;-80
2021/10/07 00:57:07;;;;;;;;;;;10.10;99.90;;;;;;5061115;28;19916;-80
2021/10/07 00:59:36;;;;;;;;;;;10.10;99.90;;;;;;5062065;28;19940;-80
2021/10/07 01:02:02;;;;;;;;;;;10.20;99.90;;;;;;5074372;28;20007;-80
2021/10/07 01:04:28;;;;;;;;;;;10.20;99.90;;;;;;5074151;28;19958;-80
2021/10/07 01:06:53;;;;;;;;;;;10.20;99.90;;;;;;5075493;28;19913;-80
2021/10/07 01:09:19;;;;;;;;;;;10.20;99.90;;;;;;5074216;28;20031;-80
2021/10/07 01:11:44;;;;;;;;;;;10.30;99.90;;;;;;5074106;28;19912;-79
2021/10/07 01:14:10;;;;;;;;;;;10.30;99.90;;;;;;5059900;28;19956;-80
2021/10/07 01:16:36;;;;;;;;;;;10.30;99.90;;;;;;5073788;28;19908;-79
2021/10/07 01:19:02;;;;;;;;;;;10.20;99.90;;;;;;5076607;28;19919;-79
2021/10/07 01:21:27;;;;;;;;;;;10.30;99.90;;;;;;5074557;28;20823;-79
2021/10/07 01:23:53;;;;;;;;;;;10.20;99.90;;;;;;5073498;28;20013;-80
2021/10/07 01:26:20;;;;;;;;;;;10.20;99.90;;;;;;5073906;28;19924;-79
2021/10/07 01:28:48;;;;;;;;;;;10.00;99.90;;;;;;5073846;28;20208;-81
2021/10/07 01:31:13;;;;;;;;;;;10.00;99.90;;;;;;5072937;28;19991;-78
2021/10/07 01:33:39;;;;;;;;;;;9.90;99.90;;;;;;5085092;28;20003;-80
2021/10/07 01:36:05;;;;;;;;;;;9.80;99.90;;;;;;5077836;28;20330;-80
2021/10/07 01:38:31;;;;;;;;;;;9.50;99.90;;;;;;5071297;28;19961;-79
2021/10/07 01:40:57;;;;;;;;;;;9.50;99.90;;;;;;5073737;28;20508;-80
2021/10/07 01:43:23;;;;;;;;;;;9.40;99.90;;;;;;5087650;28;19909;-80
2021/10/07 01:45:49;;;;;;;;;;;9.40;99.90;;;;;;5070692;28;20197;-80
2021/10/07 01:48:14;;;;;;;;;;;9.50;99.90;;;;;;5074269;28;19912;-80
2021/10/07 01:50:40;;;;;;;;;;;9.40;99.90;;;;;;5073235;28;19913;-79
2021/10/07 01:53:06;;;;;;;;;;;9.40;99.90;;;;;;5069319;28;19951;-80
2021/10/07 01:55:31;;;;;;;;;;;9.30;99.90;;;;;;5074197;28;19913;-80
2021/10/07 01:57:57;;;;;;;;;;;9.30;99.90;;;;;;5085826;28;20296;-80
2021/10/07 02:00:22;;;;;;;;;;;9.40;99.90;;;;;;5069335;28;19966;-80
2021/10/07 02:02:48;;;;;;;;;;;9.40;99.90;;;;;;5080974;28;19912;-80
2021/10/07 02:05:14;;;;;;;;;;;9.40;99.90;;;;;;5112421;28;19991;-80
2021/10/07 02:07:39;;;;;;;;;;;9.40;99.90;;;;;;5074056;28;19999;-80
2021/10/07 02:10:10;;;;;;;;;;;9.50;99.90;;;;;;5075039;28;19920;-80
2021/10/07 02:12:35;;;;;;;;;;;9.50;99.90;;;;;;5068710;28;19909;-79
2021/10/07 02:15:01;;;;;;;;;;;9.50;99.90;;;;;;5065096;28;19916;-79
2021/10/07 02:17:26;;;;;;;;;;;9.40;99.90;;;;;;5072637;28;19966;-80
2021/10/07 02:19:52;;;;;;;;;;;9.40;99.90;;;;;;5074156;28;19958;-80
2021/10/07 02:22:18;;;;;;;;;;;9.40;99.90;;;;;;5074021;28;19909;-79
2021/10/07 02:24:44;;;;;;;;;;;9.40;99.90;;;;;;5073956;28;19973;-79
2021/10/07 02:27:09;;;;;;;;;;;9.50;99.90;;;;;;5073190;28;19916;-79
2021/10/07 02:29:35;;;;;;;;;;;9.50;99.90;;;;;;5072542;28;19922;-80
2021/10/07 02:32:01;;;;;;;;;;;9.40;99.90;;;;;;5061711;28;19954;-80
2021/10/07 02:34:27;;;;;;;;;;;9.30;99.90;;;;;;5077008;28;20015;-79
2021/10/07 02:36:52;;;;;;;;;;;9.40;99.90;;;;;;5078123;28;19912;-79
2021/10/07 02:39:18;;;;;;;;;;;9.30;99.90;;;;;;5059963;28;20054;-79
2021/10/07 02:41:44;;;;;;;;;;;9.20;99.90;;;;;;5066074;28;19912;-80
2021/10/07 02:44:09;;;;;;;;;;;9.20;99.90;;;;;;5073377;28;19935;-80
2021/10/07 02:46:35;;;;;;;;;;;9.20;99.90;;;;;;5064190;28;19909;-79
2021/10/07 02:49:01;;;;;;;;;;;9.20;99.90;;;;;;5071553;28;19919;-80
2021/10/07 02:51:27;;;;;;;;;;;9.20;99.90;;;;;;5084192;28;19921;-79
2021/10/07 02:53:53;;;;;;;;;;;9.30;99.90;;;;;;5072459;28;20349;-80
2021/10/07 02:56:18;;;;;;;;;;;9.30;99.90;;;;;;5084126;28;19964;-79
2021/10/07 02:58:44;;;;;;;;;;;9.30;99.90;;;;;;5062723;28;19931;-79
2021/10/07 03:01:09;;;;;;;;;;;9.40;99.90;;;;;;5078312;28;20223;-79
2021/10/07 03:03:35;;;;;;;;;;;9.40;99.90;;;;;;5077134;28;20207;-80
2021/10/07 03:06:01;;;;;;;;;;;9.50;99.90;;;;;;5076120;28;19908;-79
2021/10/07 03:08:29;;;;;;;;;;;9.50;99.90;;;;;;5088686;28;19960;-78
2021/10/07 03:10:56;;;;;;;;;;;9.50;99.90;;;;;;5072889;28;19909;-79
2021/10/07 03:13:21;;;;;;;;;;;9.40;99.90;;;;;;5068345;28;19912;-79
2021/10/07 03:15:47;;;;;;;;;;;9.40;99.90;;;;;;5079201;28;19994;-79
2021/10/07 03:18:13;;;;;;;;;;;9.30;99.90;;;;;;5088940;28;19947;-79
2021/10/07 03:20:38;;;;;;;;;;;9.20;99.90;;;;;;5076970;28;19912;-79
2021/10/07 03:23:04;;;;;;;;;;;9.20;99.90;;;;;;5068199;28;20366;-80
2021/10/07 03:25:30;;;;;;;;;;;9.20;99.90;;;;;;5063552;28;19917;-79
2021/10/07 03:27:55;;;;;;;;;;;9.20;99.90;;;;;;5087712;28;19909;-79
2021/10/07 03:30:21;;;;;;;;;;;9.20;99.90;;;;;;5063783;28;20334;-80
2021/10/07 03:32:47;;;;;;;;;;;9.20;99.90;;;;;;5072133;28;19912;-79
2021/10/07 03:35:12;;;;;;;;;;;9.10;99.90;;;;;;5093048;28;19908;-79
2021/10/07 03:37:38;;;;;;;;;;;9.00;99.90;;;;;;5085083;22;20320;-80
2021/10/07 03:40:08;;;;;;;;;;;8.90;99.90;;;;;;5038956;28;20003;-80
2021/10/07 03:42:34;;;;;;;;;;;8.80;99.90;;;;;;5046177;28;19913;-79
2021/10/07 03:45:02;;;;;;;;;;;8.80;99.90;;;;;;5033286;28;19959;-80
2021/10/07 03:47:28;;;;;;;;;;;8.70;99.90;;;;;;5022311;28;19920;-79
2021/10/07 03:49:56;;;;;;;;;;;8.70;99.90;;;;;;5034717;28;20327;-78
2021/10/07 03:52:22;;;;;;;;;;;8.70;99.90;;;;;;5000396;28;19933;-79
2021/10/07 03:54:48;;;;;;;;;;;8.70;99.90;;;;;;5017513;28;20309;-79
2021/10/07 03:57:13;;;;;;;;;;;8.80;99.90;;;;;;5034223;28;19932;-79
2021/10/07 03:59:39;;;;;;;;;;;8.80;99.90;;;;;;5015699;28;20328;-78
2021/10/07 04:02:04;;;;;;;;;;;8.80;99.90;;;;;;5033279;28;19913;-79
2021/10/07 04:04:30;;;;;;;;;;;8.80;99.90;;;;;;5034637;28;19917;-79
2021/10/07 04:06:56;;;;;;;;;;;8.70;99.90;;;;;;5027890;28;19916;-80
2021/10/07 04:09:21;;;;;;;;;;;8.60;99.90;;;;;;5035384;28;19917;-79
2021/10/07 04:11:47;;;;;;;;;;;8.60;99.90;;;;;;5035111;28;19915;-79
2021/10/07 04:14:12;;;;;;;;;;;8.60;99.90;;;;;;5032929;28;19920;-79
2021/10/07 04:16:38;;;;;;;;;;;8.50;99.90;;;;;;5032793;28;19960;-79
2021/10/07 04:19:04;;;;;;;;;;;8.50;99.90;;;;;;5015658;28;19932;-79
2021/10/07 04:21:30;;;;;;;;;;;8.60;99.90;;;;;;5016546;28;19917;-79
2021/10/07 04:23:55;;;;;;;;;;;8.70;99.90;;;;;;5027012;28;19956;-79
2021/10/07 04:26:21;;;;;;;;;;;8.70;99.90;;;;;;5014542;28;20331;-79
2021/10/07 04:28:46;;;;;;;;;;;8.70;99.90;;;;;;5032368;28;20224;-79
2021/10/07 04:31:12;;;;;;;;;;;8.80;99.90;;;;;;5032841;28;20300;-79
2021/10/07 04:33:37;;;;;;;;;;;8.70;99.90;;;;;;5035206;28;19999;-79
2021/10/07 04:36:04;;;;;;;;;;;8.70;99.90;;;;;;5012888;28;20328;-79
2021/10/07 04:38:30;;;;;;;;;;;8.70;99.90;;;;;;5010055;28;20328;-79
2021/10/07 04:40:55;;;;;;;;;;;8.80;99.90;;;;;;5036255;28;19924;-79
2021/10/07 04:43:21;;;;;;;;;;;8.80;99.90;;;;;;5008250;28;20240;-79
2021/10/07 04:45:47;;;;;;;;;;;8.90;99.90;;;;;;5026901;28;19920;-79
2021/10/07 04:48:13;;;;;;;;;;;8.90;99.90;;;;;;5029075;28;19917;-82
2021/10/07 04:50:40;;;;;;;;;;;9.00;99.90;;;;;;5026635;28;19924;-79
2021/10/07 04:53:05;;;;;;;;;;;9.00;99.90;;;;;;5026900;28;20066;-79
2021/10/07 04:55:31;;;;;;;;;;;9.00;99.90;;;;;;5030430;28;20019;-78
2021/10/07 04:57:56;;;;;;;;;;;8.90;99.90;;;;;;5010896;28;20007;-78
2021/10/07 05:00:22;;;;;;;;;;;8.80;99.90;;;;;;5009692;28;20323;-78
2021/10/07 05:02:48;;;;;;;;;;;8.70;99.90;;;;;;5011180;28;20262;-78
2021/10/07 05:05:14;;;;;;;;;;;8.70;99.90;;;;;;5025319;28;19927;-78
2021/10/07 05:07:40;;;;;;;;;;;8.60;99.90;;;;;;5002416;28;19956;-78
2021/10/07 05:10:07;;;;;;;;;;;8.60;99.90;;;;;;5024557;28;19971;-78
2021/10/07 05:12:33;;;;;;;;;;;8.50;99.90;;;;;;5028635;28;19921;-77
2021/10/07 05:14:58;;;;;;;;;;;8.60;99.90;;;;;;5027195;28;19924;-78
2021/10/07 05:17:24;;;;;;;;;;;8.50;99.90;;;;;;5026001;28;20000;-77
2021/10/07 05:19:50;;;;;;;;;;;8.50;99.90;;;;;;5025116;28;20216;-78
2021/10/07 05:22:15;;;;;;;;;;;8.50;99.90;;;;;;5026497;28;19925;-78
2021/10/07 05:24:41;;;;;;;;;;;8.50;99.90;;;;;;5027133;28;19928;-79
2021/10/07 05:27:06;;;;;;;;;;;8.40;99.90;;;;;;5028287;28;19976;-78
2021/10/07 05:29:32;;;;;;;;;;;8.40;99.90;;;;;;5027396;28;19921;-79
2021/10/07 05:31:58;;;;;;;;;;;8.40;99.90;;;;;;5010074;28;19922;-79
2021/10/07 05:34:24;;;;;;;;;;;8.40;99.90;;;;;;5011362;28;20016;-78
2021/10/07 05:36:49;;;;;;;;;;;8.40;99.90;;;;;;5007072;28;19944;-77
2021/10/07 05:39:15;;;;;;;;;;;8.40;99.90;;;;;;5009581;28;20232;-76
2021/10/07 05:41:40;;;;;;;;;;;8.40;99.90;;;;;;5024895;28;19913;-78
2021/10/07 05:44:10;;;;;;;;;;;8.30;99.90;;;;;;5009506;28;19921;-78
2021/10/07 05:46:39;;;;;;;;;;;8.30;99.90;;;;;;5010257;28;19925;-78
2021/10/07 05:49:05;;;;;;;;;;;8.20;99.90;;;;;;5025602;28;19917;-78
2021/10/07 05:51:30;;;;;;;;;;;8.30;99.90;;;;;;5006114;28;20275;-78
2021/10/07 05:53:56;;;;;;;;;;;8.30;99.90;;;;;;5029137;28;19962;-82
2021/10/07 05:56:21;;;;;;;;;;;8.30;99.90;;;;;;5035210;28;19967;-78
2021/10/07 05:58:47;;;;;;;;;;;8.30;99.90;;;;;;5039942;28;20317;-79
2021/10/07 06:01:13;;;;;;;;;;;8.40;99.90;;;;;;5008098;28;20264;-80
2021/10/07 06:03:39;;;;;;;;;;;8.50;99.90;;;;;;5025868;28;19917;-81
2021/10/07 06:06:05;;;;;;;;;;;8.50;99.90;;;;;;5029739;28;20015;-80
2021/10/07 06:08:30;;;;;;;;;;;8.60;99.90;;;;;;5031636;28;20343;-79
2021/10/07 06:10:56;;;;;;;;;;;8.70;99.90;;;;;;5015439;28;19913;-79
2021/10/07 06:13:22;;;;;;;;;;;8.70;99.90;;;;;;5030142;28;19917;-78
2021/10/07 06:15:48;;;;;;;;;;;8.80;99.90;;;;;;5027707;28;21826;-79
2021/10/07 06:18:15;;;;;;;;;;;8.80;99.90;;;;;;5029531;28;19920;-78
2021/10/07 06:20:41;;;;;;;;;;;8.80;99.90;;;;;;5043887;28;19913;-78
2021/10/07 06:23:07;;;;;;;;;;;8.90;99.90;;;;;;5034283;28;19920;-78
2021/10/07 06:25:34;;;;;;;;;;;8.90;99.90;;;;;;5017233;28;19924;-78
2021/10/07 06:28:00;;;;;;;;;;;9.00;99.90;;;;;;5016660;28;20248;-79
2021/10/07 06:30:26;;;;;;;;;;;9.00;99.90;;;;;;5034327;28;19995;-80
2021/10/07 06:32:52;;;;;;;;;;;9.00;99.90;;;;;;5030491;28;19952;-79
2021/10/07 06:35:18;;;;;;;;;;;9.10;99.90;;;;;;5015507;28;19917;-79
2021/10/07 06:37:43;;;;;;;;;;;9.20;99.90;;;;;;5033367;28;19932;-78
2021/10/07 06:40:09;;;;;;;;;;;9.20;99.90;;;;;;5032849;28;19928;-77
2021/10/07 06:42:36;;;;;;;;;;;9.40;99.90;;;;;;5033061;28;19928;-80
2021/10/07 06:45:05;;;;;;;;;;;9.40;99.90;;;;;;5032099;28;20331;-78
2021/10/07 06:47:30;;;;;;;;;;;9.40;99.90;;;;;;5014851;28;19920;-78
2021/10/07 06:49:56;;;;;;;;;;;9.50;99.90;;;;;;5015574;28;20339;-78
2021/10/07 06:52:22;;;;;;;;;;;9.60;99.90;;;;;;5032069;28;20278;-78
2021/10/07 06:54:47;;;;;;;;;;;9.70;99.90;;;;;;5043612;28;20225;-78
2021/10/07 06:57:13;;;;;;;;;;;9.80;99.90;;;;;;5034260;28;19925;-78
2021/10/07 06:59:38;;;;;;;;;;;9.90;99.90;;;;;;5014326;28;19920;-78
2021/10/07 07:02:04;;;;;;;;;;;10.00;99.90;;;;;;5037202;28;20331;-78
2021/10/07 07:04:29;;;;;;;;;;;10.00;99.90;;;;;;5030115;28;19921;-78
2021/10/07 07:06:55;;;;;;;;;;;10.00;99.90;;;;;;5013381;28;19917;-79
2021/10/07 07:09:21;;;;;;;;;;;10.00;99.90;;;;;;5035733;28;20329;-78
2021/10/07 07:11:46;;;;;;;;;;;10.10;99.90;;;;;;5017404;28;20316;-78
2021/10/07 07:14:12;;;;;;;;;;;10.10;99.90;;;;;;5036241;28;19920;-78
2021/10/07 07:16:37;;;;;;;;;;;10.10;99.90;;;;;;5034069;28;20046;-78
2021/10/07 07:19:03;;;;;;;;;;;10.30;99.90;;;;;;5031045;28;19924;-77
2021/10/07 07:21:31;;;;;;;;;;;10.40;99.90;;;;;;5033811;28;19939;-78
2021/10/07 07:23:58;;;;;;;;;;;10.60;99.90;;;;;;5033543;28;19921;-78
2021/10/07 07:26:24;;;;;;;;;;;10.80;99.90;;;;;;5032282;28;19913;-79
2021/10/07 07:28:50;;;;;;;;;;;10.90;99.90;;;;;;5018764;28;19925;-79
2021/10/07 07:31:17;;;;;;;;;;;11.00;99.90;;;;;;5033396;28;20008;-78
2021/10/07 07:33:45;;;;;;;;;;;11.20;99.90;;;;;;5035857;28;20012;-78
2021/10/07 07:36:11;;;;;;;;;;;11.40;99.90;;;;;;5034050;28;19967;-78
2021/10/07 07:38:36;;;;;;;;;;;11.50;99.90;;;;;;5031660;28;19925;-78
2021/10/07 07:41:02;;;;;;;;;;;11.70;99.90;;;;;;5036544;28;19913;-78
2021/10/07 07:43:27;;;;;;;;;;;11.70;99.90;;;;;;5030665;28;20576;-78
2021/10/07 07:45:53;;;;;;;;;;;11.70;99.90;;;;;;5012008;28;19924;-79
2021/10/07 07:48:19;;;;;;;;;;;11.90;99.90;;;;;;5014567;28;20267;-79
2021/10/07 07:50:44;;;;;;;;;;;12.10;99.90;;;;;;5037151;28;19913;-78
2021/10/07 07:53:10;;;;;;;;;;;12.20;99.90;;;;;;5019225;28;19928;-80
2021/10/07 07:55:37;;;;;;;;;;;12.30;99.90;;;;;;5043613;28;19959;-78
2021/10/07 07:58:03;;;;;;;;;;;12.30;99.90;;;;;;5027643;28;19936;-78
2021/10/07 08:00:29;;;;;;;;;;;12.40;99.90;;;;;;5027386;28;19917;-78
2021/10/07 08:02:54;;;;;;;;;;;12.40;99.90;;;;;;5029804;28;19913;-79
2021/10/07 08:05:20;;;;;;;;;;;12.70;99.90;;;;;;5009535;28;19940;-78
2021/10/07 08:07:46;;;;;;;;;;;13.20;99.90;;;;;;5032830;28;19913;-79
2021/10/07 08:10:14;;;;;;;;;;;13.70;99.90;;;;;;5036243;28;20212;-79
2021/10/07 08:12:39;;;;;;;;;;;14.40;99.90;;;;;;5018025;28;20407;-78
2021/10/07 08:15:06;;;;;;;;;;;15.10;99.90;;;;;;5030020;28;19928;-79
2021/10/07 08:17:33;;;;;;;;;;;16.20;99.90;;;;;;5048522;28;20297;-78
2021/10/07 08:19:59;;;;;;;;;;;17.30;99.90;;;;;;5021058;28;19987;-79
2021/10/07 08:22:25;;;;;;;;;;;18.10;99.90;;;;;;5019590;28;19913;-79
2021/10/07 08:24:51;;;;;;;;;;;18.60;99.90;;;;;;5040143;28;19966;-79
2021/10/07 08:27:18;;;;;;;;;;;18.80;99.90;;;;;;5035910;28;19915;-78
2021/10/07 08:29:44;;;;;;;;;;;18.60;99.90;;;;;;5025076;28;19970;-79
2021/10/07 08:32:10;;;;;;;;;;;18.40;99.90;;;;;;5017872;28;19915;-78
2021/10/07 08:34:36;;;;;;;;;;;18.10;99.90;;;;;;5035951;28;19998;-78
2021/10/07 08:37:01;;;;;;;;;;;17.60;99.90;;;;;;5029051;28;19991;-78
2021/10/07 08:39:27;;;;;;;;;;;17.00;99.90;;;;;;5017215;28;19910;-78
2021/10/07 08:41:52;;;;;;;;;;;16.60;99.90;;;;;;5020868;28;19992;-79
2021/10/07 08:44:18;;;;;;;;;;;16.60;99.90;;;;;;5017633;28;19917;-79
2021/10/07 08:46:47;;;;;;;;;;;16.70;99.90;;;;;;5021867;28;19928;-77
2021/10/07 08:49:17;;;;;;;;;;;16.70;99.90;;;;;;5036279;28;19956;-78
2021/10/07 08:51:43;;;;;;;;;;;16.60;99.90;;;;;;5034258;28;19917;-78
2021/10/07 08:54:08;;;;;;;;;;;16.70;99.90;;;;;;5009849;28;19917;-79
2021/10/07 08:56:34;;;;;;;;;;;16.80;99.90;;;;;;5036307;28;19959;-78
2021/10/07 08:59:00;;;;;;;;;;;16.90;99.90;;;;;;5037858;28;20694;-78
2021/10/07 09:01:42;;;;;;;;;;;17.00;99.90;;;;;;5026202;28;19948;-78
2021/10/07 09:04:17;;;;;;;;;;;17.60;99.90;;;;;;5025347;28;19949;-79
2021/10/07 09:06:53;;;;;;;;;;;18.50;99.90;;;;;;5025400;28;19917;-78
2021/10/07 09:09:19;;;;;;;;;;;19.20;99.90;;;;;;5025834;28;19921;-77
2021/10/07 09:11:49;;;;;;;;;;;19.60;99.90;;;;;;5026094;28;19917;-78
2021/10/07 09:14:16;;;;;;;;;;;19.60;99.90;;;;;;5007343;28;20043;-79
2021/10/07 09:16:46;;;;;;;;;;;19.30;99.90;;;;;;5026743;28;19917;-82
2021/10/07 09:19:16;;;;;;;;;;;19.00;99.90;;;;;;5027077;28;19918;-78
2021/10/07 09:21:43;;;;;;;;;;;18.90;99.90;;;;;;5015797;28;19918;-80
2021/10/07 09:24:25;;;;;;;;;;;18.70;99.90;;;;;;5028259;28;19919;-79
2021/10/07 09:26:50;;;;;;;;;;;18.50;99.90;;;;;;5033798;28;19917;-79
2021/10/07 09:29:16;;;;;;;;;;;18.40;99.90;;;;;;5012078;28;19940;-79
2021/10/07 09:31:42;;;;;;;;;;;18.40;99.90;;;;;;5007858;28;19918;-79
2021/10/07 09:34:08;;;;;;;;;;;18.30;99.90;;;;;;5007492;28;19917;-78
2021/10/07 09:36:34;;;;;;;;;;;18.10;99.90;;;;;;5012101;28;19924;-83
2021/10/07 09:39:01;;;;;;;;;;;18.10;99.90;;;;;;5024366;28;20229;-84
2021/10/07 09:41:29;;;;;;;;;;;18.10;99.90;;;;;;5009925;28;19913;-79
2021/10/07 09:43:55;;;;;;;;;;;18.10;99.90;;;;;;5027624;28;20209;-82
2021/10/07 09:46:39;;;;;;;;;;;18.00;99.90;;;;;;5037021;28;19913;-82
2021/10/07 09:49:06;;;;;;;;;;;17.90;99.90;;;;;;5026139;28;19917;-80
2021/10/07 09:51:48;;;;;;;;;;;17.60;99.90;;;;;;5010953;28;20224;-80
2021/10/07 09:54:24;;;;;;;;;;;17.40;99.90;;;;;;5011250;28;19922;-83
2021/10/07 09:56:52;;;;;;;;;;;17.40;99.90;;;;;;5026631;28;19913;-83
2021/10/07 09:59:17;;;;;;;;;;;17.40;99.90;;;;;;5012679;28;20301;-84
2021/10/07 10:01:43;;;;;;;;;;;17.40;99.90;;;;;;5027378;28;19925;-83
2021/10/07 10:04:09;;;;;;;;;;;17.50;99.90;;;;;;5013290;28;20342;-86
2021/10/07 10:06:35;;;;;;;;;;;17.30;99.90;;;;;;5022269;28;19913;-87
2021/10/07 10:09:00;;;;;;;;;;;17.30;99.90;;;;;;5033850;28;20005;-82
2021/10/07 10:11:26;;;;;;;;;;;17.40;99.90;;;;;;5044810;28;19909;-83
2021/10/07 10:13:52;;;;;;;;;;;17.30;99.90;;;;;;5021019;28;20331;-83
2021/10/07 10:16:18;;;;;;;;;;;17.50;99.90;;;;;;5022902;28;19916;-84
2021/10/07 10:18:55;;;;;;;;;;;17.50;99.90;;;;;;5034330;28;19919;-86
2021/10/07 10:21:21;;;;;;;;;;;17.60;99.90;;;;;;5017169;28;19920;-84
2021/10/07 10:23:47;;;;;;;;;;;17.70;99.90;;;;;;5015283;28;19914;-83
2021/10/07 10:26:13;;;;;;;;;;;17.70;99.90;;;;;;5014047;28;19917;-87
2021/10/07 10:28:42;;;;;;;;;;;17.70;99.90;;;;;;5027016;28;19949;-85
2021/10/07 10:31:09;;;;;;;;;;;17.60;99.90;;;;;;5035126;28;19940;-88
2021/10/07 10:33:36;;;;;;;;;;;17.70;99.90;;;;;;5030690;28;19919;-85
2021/10/07 10:36:02;;;;;;;;;;;17.70;99.90;;;;;;5023903;28;19918;-80
2021/10/07 10:38:28;;;;;;;;;;;17.70;99.90;;;;;;5026553;28;20316;-83
2021/10/07 10:40:54;;;;;;;;;;;17.50;99.90;;;;;;5032145;28;19917;-83
2021/10/07 10:43:30;;;;;;;;;;;17.50;99.90;;;;;;5034949;28;19917;-85
2021/10/07 10:46:02;;;;;;;;;;;17.40;99.90;;;;;;5021748;28;19963;-87
2021/10/07 10:48:44;;;;;;;;;;;17.50;99.90;;;;;;5016246;28;20051;-86
2021/10/07 10:51:16;;;;;;;;;;;17.60;99.90;;;;;;5019138;28;20024;-80
2021/10/07 10:54:07;;;;;;;;;;;17.70;99.90;;;;;;5038358;28;19915;-80
2021/10/07 10:56:37;;;;;;;;;;;17.80;99.90;;;;;;5014802;28;19960;-79
2021/10/07 10:59:22;;;;;;;;;;;18.00;99.90;;;;;;5034050;28;19913;-80
2021/10/07 11:02:06;;;;;;;;;;;18.10;99.90;;;;;;5034373;28;20338;-79
2021/10/07 11:04:45;;;;;;;;;;;18.10;99.90;;;;;;5040103;28;19967;-79
2021/10/07 11:07:21;;;;;;;;;;;18.20;99.90;;;;;;5033122;28;20347;-85
2021/10/07 11:09:57;;;;;;;;;;;18.40;99.90;;;;;;5031683;28;19971;-78
2021/10/07 11:12:23;;;;;;;;;;;18.40;99.90;;;;;;5011506;28;19979;-83
2021/10/07 11:14:52;;;;;;;;;;;18.20;99.90;;;;;;5034704;28;20309;-85
2021/10/07 11:17:18;;;;;;;;;;;18.20;99.90;;;;;;5020858;28;20008;-80
2021/10/07 11:19:45;;;;;;;;;;;18.00;99.90;;;;;;5038014;28;19913;-85
2021/10/07 11:22:11;;;;;;;;;;;18.20;99.90;;;;;;5033655;28;19917;-85
2021/10/07 11:24:47;;;;;;;;;;;18.20;99.90;;;;;;5039413;28;19920;-89
2021/10/07 11:27:12;;;;;;;;;;;18.30;99.90;;;;;;5019162;28;19936;-80
2021/10/07 11:29:38;;;;;;;;;;;18.30;99.90;;;;;;5044856;28;20304;-90
2021/10/07 11:32:03;;;;;;;;;;;18.20;99.90;;;;;;5032875;28;19912;-86
2021/10/07 11:34:29;;;;;;;;;;;18.20;99.90;;;;;;5050708;28;20224;-83
2021/10/07 11:36:54;;;;;;;;;;;18.20;99.90;;;;;;5025661;28;19921;-89
2021/10/07 11:39:20;;;;;;;;;;;18.20;99.90;;;;;;5030820;28;19921;-86
2021/10/07 11:41:45;;;;;;;;;;;18.30;99.90;;;;;;5020806;28;19909;-81
2021/10/07 11:44:11;;;;;;;;;;;18.40;99.90;;;;;;5037366;28;20011;-83
2021/10/07 11:46:37;;;;;;;;;;;18.30;99.90;;;;;;5038308;28;20300;-90
2021/10/07 11:49:03;;;;;;;;;;;18.20;99.90;;;;;;5020717;28;19913;-86
2021/10/07 11:51:30;;;;;;;;;;;18.10;99.90;;;;;;5037825;28;19917;-86
2021/10/07 11:54:02;;;;;;;;;;;18.10;99.90;;;;;;5019732;28;19909;-87
2021/10/07 11:56:28;;;;;;;;;;;18.20;99.90;;;;;;5015423;28;19936;-88
2021/10/07 11:58:57;;;;;;;;;;;18.10;99.90;;;;;;5039899;28;19997;-90
2021/10/07 12:01:25;;;;;;;;;;;18.20;99.90;;;;;;5026137;28;19920;-90
2021/10/07 12:03:56;;;;;;;;;;;18.10;99.90;;;;;;5015756;28;19921;-84
2021/10/07 12:06:22;;;;;;;;;;;18.10;99.90;;;;;;5027880;28;19909;-81
2021/10/07 12:08:48;;;;;;;;;;;18.10;99.90;;;;;;5037352;28;19924;-88
2021/10/07 12:11:13;;;;;;;;;;;18.20;99.90;;;;;;5020358;28;19983;-79
2021/10/07 12:13:40;;;;;;;;;;;18.20;99.90;;;;;;5038110;28;19909;-88
2021/10/07 12:16:10;;;;;;;;;;;18.10;99.90;;;;;;5018416;28;19916;-80
2021/10/07 12:18:37;;;;;;;;;;;18.20;99.90;;;;;;5017320;28;20212;-88
2021/10/07 12:21:05;;;;;;;;;;;18.30;99.90;;;;;;5024594;28;19909;-88
2021/10/07 12:23:32;;;;;;;;;;;18.40;99.90;;;;;;5020055;28;19910;-91
2021/10/07 12:26:00;;;;;;;;;;;18.40;99.90;;;;;;5034333;28;20312;-89
2021/10/07 12:28:26;;;;;;;;;;;18.30;99.90;;;;;;5019632;28;20308;-81
2021/10/07 12:30:59;;;;;;;;;;;18.20;99.90;;;;;;5030638;28;19920;-86
2021/10/07 12:33:26;;;;;;;;;;;18.10;99.90;;;;;;5025166;28;19908;-86
2021/10/07 12:35:53;;;;;;;;;;;18.10;99.90;;;;;;5039475;28;20015;-79
2021/10/07 12:38:19;;;;;;;;;;;17.90;99.90;;;;;;5032121;28;20328;-85
2021/10/07 12:40:56;;;;;;;;;;;17.80;99.90;;;;;;5025741;28;19915;-81
2021/10/07 12:43:22;;;;;;;;;;;17.70;99.90;;;;;;5027470;28;21541;-79
2021/10/07 12:46:06;;;;;;;;;;;17.50;99.90;;;;;;5007290;28;20017;-85
2021/10/07 12:48:44;;;;;;;;;;;17.30;99.90;;;;;;5002373;28;19917;-79
2021/10/07 12:51:11;;;;;;;;;;;17.20;99.90;;;;;;5016462;28;20225;-84
2021/10/07 12:53:39;;;;;;;;;;;17.10;99.90;;;;;;5013007;28;19957;-86
2021/10/07 12:56:08;;;;;;;;;;;17.00;99.90;;;;;;5017701;28;19910;-85
2021/10/07 12:58:34;;;;;;;;;;;17.00;99.90;;;;;;5015439;28;19916;-79
2021/10/07 13:01:10;;;;;;;;;;;17.10;99.90;;;;;;5000605;28;19918;-83
2021/10/07 13:03:36;;;;;;;;;;;17.10;99.90;;;;;;5002347;28;19917;-80
2021/10/07 13:06:02;;;;;;;;;;;17.00;99.90;;;;;;5008232;28;19910;-82
2021/10/07 13:08:27;;;;;;;;;;;17.00;99.90;;;;;;5016297;28;20512;-87
2021/10/07 13:10:53;;;;;;;;;;;17.00;99.90;;;;;;5008066;28;19937;-78
2021/10/07 13:13:18;;;;;;;;;;;17.00;99.90;;;;;;5013069;28;19923;-78
2021/10/07 13:15:44;;;;;;;;;;;16.80;99.90;;;;;;5014981;28;19921;-78
2021/10/07 13:18:11;;;;;;;;;;;16.80;99.90;;;;;;5010104;28;19917;-79
2021/10/07 13:20:37;;;;;;;;;;;16.70;99.90;;;;;;5032850;28;19952;-79
2021/10/07 13:23:03;;;;;;;;;;;16.60;99.90;;;;;;5014483;28;19992;-84
2021/10/07 13:25:37;;;;;;;;;;;16.70;99.90;;;;;;5017509;28;20337;-79
2021/10/07 13:28:02;;;;;;;;;;;16.70;99.90;;;;;;5008600;28;19961;-79
2021/10/07 13:30:29;;;;;;;;;;;16.60;99.90;;;;;;5027648;28;20276;-89
2021/10/07 13:32:55;;;;;;;;;;;16.50;99.90;;;;;;5002960;28;19932;-80
2021/10/07 13:35:25;;;;;;;;;;;16.50;99.90;;;;;;5007262;28;19978;-79
2021/10/07 13:37:52;;;;;;;;;;;16.50;99.90;;;;;;5026112;28;19920;-79
2021/10/07 13:40:18;;;;;;;;;;;16.40;99.90;;;;;;5011733;28;19943;-79
2021/10/07 13:42:44;;;;;;;;;;;16.40;99.90;;;;;;5027664;28;19963;-80
2021/10/07 13:45:10;;;;;;;;;;;16.30;99.90;;;;;;5007829;28;19913;-80
2021/10/07 13:47:35;;;;;;;;;;;16.30;99.90;;;;;;5032870;28;19916;-80
2021/10/07 13:50:05;;;;;;;;;;;16.20;99.90;;;;;;5025925;28;19921;-79
2021/10/07 13:52:31;;;;;;;;;;;16.20;99.90;;;;;;5026823;28;20008;-78
2021/10/07 13:54:57;;;;;;;;;;;16.10;99.90;;;;;;5026087;28;20331;-79
2021/10/07 13:57:23;;;;;;;;;;;16.10;99.90;;;;;;5026335;28;19917;-79
2021/10/07 13:59:50;;;;;;;;;;;16.10;99.90;;;;;;5024283;28;19917;-78
2021/10/07 14:02:15;;;;;;;;;;;16.10;99.90;;;;;;5025758;28;19987;-87
2021/10/07 14:04:41;;;;;;;;;;;16.00;99.90;;;;;;5007427;28;20377;-79
2021/10/07 14:07:08;;;;;;;;;;;16.00;99.90;;;;;;5007585;28;19962;-79
2021/10/07 14:09:33;;;;;;;;;;;16.00;99.90;;;;;;5025971;28;19921;-78
2021/10/07 14:11:59;;;;;;;;;;;16.00;99.90;;;;;;5026798;28;19924;-80
2021/10/07 14:14:24;;;;;;;;;;;16.00;99.90;;;;;;5028742;28;19924;-80
2021/10/07 14:16:50;;;;;;;;;;;15.90;99.90;;;;;;5039460;28;19913;-79
2021/10/07 14:19:15;;;;;;;;;;;15.90;99.90;;;;;;5027223;28;20213;-78
2021/10/07 14:21:42;;;;;;;;;;;15.90;99.90;;;;;;5007046;28;20308;-78
2021/10/07 14:24:07;;;;;;;;;;;15.90;99.90;;;;;;5008397;28;19949;-78